Time;durP1;ratioP1;P1;durP2;ratioP2;P2;SDS_P1;SDS_P2;PMS_P1;PMS_P2;Temp;Humidity;BMP_temperature;BMP_pressure;BME280_temperature;BME280_humidity;BME280_pressure;Samples;Min_cycle;Max_cycle;Signal;HPM_P1;HPM_P2
2024/01/22 00:02:14;;;;;;;50.65;28.38;;;;;;;;;;5014570;28;20156;-67
2024/01/22 00:04:40;;;;;;;52.05;27.65;;;;;;;;;;5014990;28;20037;-67
2024/01/22 00:07:05;;;;;;;50.72;26.17;;;;;;;;;;5014509;28;20036;-66
2024/01/22 00:09:31;;;;;;;58.70;30.88;;;;;;;;;;5014731;28;20112;-66
2024/01/22 00:11:56;;;;;;;53.45;29.13;;;;;;;;;;5014668;28;20030;-69
2024/01/22 00:14:21;;;;;;;60.53;33.13;;;;;;;;;;4996713;28;20100;-68
2024/01/22 00:16:47;;;;;;;71.50;35.97;;;;;;;;;;5014630;28;20030;-66
2024/01/22 00:19:12;;;;;;;68.40;36.90;;;;;;;;;;5014264;28;20072;-67
2024/01/22 00:21:42;;;;;;;72.53;36.40;;;;;;;;;;5014208;28;20445;-68
2024/01/22 00:24:07;;;;;;;80.55;41.00;;;;;;;;;;4996612;28;20140;-69
2024/01/22 00:26:33;;;;;;;62.95;34.72;;;;;;;;;;5014417;28;20478;-68
2024/01/22 00:28:58;;;;;;;59.17;31.02;;;;;;;;;;5014496;28;20022;-68
2024/01/22 00:31:24;;;;;;;51.58;27.63;;;;;;;;;;4996880;28;20033;-68
2024/01/22 00:33:49;;;;;;;48.30;25.15;;;;;;;;;;4996444;28;20018;-68
2024/01/22 00:36:14;;;;;;;56.00;29.27;;;;;;;;;;5014270;28;20030;-69
2024/01/22 00:38:40;;;;;;;56.05;28.52;;;;;;;;;;5014021;28;20038;-69
2024/01/22 00:41:06;;;;;;;57.20;30.48;;;;;;;;;;5014559;28;20099;-68
2024/01/22 00:43:31;;;;;;;48.95;26.20;;;;;;;;;;5013973;28;20450;-69
2024/01/22 00:45:57;;;;;;;41.30;23.67;;;;;;;;;;5014155;28;20113;-68
2024/01/22 00:48:22;;;;;;;44.28;23.92;;;;;;;;;;5013769;28;20049;-68
2024/01/22 00:50:48;;;;;;;44.55;25.08;;;;;;;;;;5013867;28;20601;-67
2024/01/22 00:53:13;;;;;;;58.88;31.33;;;;;;;;;;5014124;28;20381;-67
2024/01/22 00:55:39;;;;;;;59.72;30.85;;;;;;;;;;5014112;28;20034;-67
2024/01/22 00:58:04;;;;;;;56.13;29.50;;;;;;;;;;5014045;28;20026;-68
2024/01/22 01:00:29;;;;;;;52.47;28.65;;;;;;;;;;5013836;28;20034;-68
2024/01/22 01:02:55;;;;;;;45.92;23.10;;;;;;;;;;5014061;28;20381;-68
2024/01/22 01:05:21;;;;;;;50.15;28.40;;;;;;;;;;5013934;28;20046;-68
2024/01/22 01:07:46;;;;;;;48.88;25.10;;;;;;;;;;5013763;28;20488;-66
2024/01/22 01:10:11;;;;;;;43.42;24.13;;;;;;;;;;5013950;28;20034;-67
2024/01/22 01:12:37;;;;;;;48.05;25.23;;;;;;;;;;4996073;28;20487;-67
2024/01/22 01:15:03;;;;;;;44.30;23.95;;;;;;;;;;5013639;28;20033;-68
2024/01/22 01:17:29;;;;;;;42.65;23.90;;;;;;;;;;5014186;28;20026;-68
2024/01/22 01:19:55;;;;;;;48.20;24.92;;;;;;;;;;5016694;28;20362;-67
2024/01/22 01:22:20;;;;;;;48.80;23.75;;;;;;;;;;5017826;28;20103;-68
2024/01/22 01:24:45;;;;;;;50.60;23.77;;;;;;;;;;5017911;28;20038;-66
2024/01/22 01:27:11;;;;;;;42.63;23.15;;;;;;;;;;5017438;28;20069;-67
2024/01/22 01:29:40;;;;;;;47.78;25.15;;;;;;;;;;5032568;28;20038;-66
2024/01/22 01:32:05;;;;;;;45.40;25.15;;;;;;;;;;5017631;28;20041;-66
2024/01/22 01:34:30;;;;;;;42.90;25.30;;;;;;;;;;5017592;28;20129;-67
2024/01/22 01:36:56;;;;;;;46.88;23.65;;;;;;;;;;5017271;28;20481;-66
2024/01/22 01:39:22;;;;;;;41.10;22.85;;;;;;;;;;5017488;28;20405;-66
2024/01/22 01:41:48;;;;;;;41.08;22.38;;;;;;;;;;5017488;28;20592;-67
2024/01/22 01:44:13;;;;;;;44.38;22.40;;;;;;;;;;5017326;28;20121;-67
2024/01/22 01:46:39;;;;;;;43.65;21.90;;;;;;;;;;5017136;28;20129;-66
2024/01/22 01:49:04;;;;;;;40.08;22.15;;;;;;;;;;5017315;28;20030;-67
2024/01/22 01:51:30;;;;;;;37.50;20.83;;;;;;;;;;5017010;28;20022;-66
2024/01/22 01:53:56;;;;;;;40.00;20.70;;;;;;;;;;4999947;28;20029;-66
2024/01/22 01:56:21;;;;;;;34.78;20.13;;;;;;;;;;5017182;28;20049;-66
2024/01/22 01:58:47;;;;;;;38.58;20.73;;;;;;;;;;5017444;28;20030;-66
2024/01/22 02:01:14;;;;;;;41.38;21.15;;;;;;;;;;5032004;28;20030;-66
2024/01/22 02:03:40;;;;;;;35.65;19.52;;;;;;;;;;5017352;28;20025;-67
2024/01/22 02:06:05;;;;;;;38.63;20.35;;;;;;;;;;5016927;28;20060;-67
2024/01/22 02:08:31;;;;;;;39.38;21.92;;;;;;;;;;5016962;28;20057;-66
2024/01/22 02:10:56;;;;;;;38.10;20.20;;;;;;;;;;5016917;28;20065;-66
2024/01/22 02:13:22;;;;;;;34.30;18.75;;;;;;;;;;5016870;28;20092;-67
2024/01/22 02:15:47;;;;;;;36.33;17.00;;;;;;;;;;5016536;28;20026;-66
2024/01/22 02:18:12;;;;;;;37.72;18.67;;;;;;;;;;4998925;28;20048;-66
2024/01/22 02:20:38;;;;;;;33.53;19.00;;;;;;;;;;5016494;28;20060;-66
2024/01/22 02:23:04;;;;;;;37.75;20.15;;;;;;;;;;5016405;28;20458;-67
2024/01/22 02:25:29;;;;;;;33.42;18.02;;;;;;;;;;5016609;28;20100;-67
2024/01/22 02:27:54;;;;;;;34.60;19.77;;;;;;;;;;4998813;28;20477;-67
2024/01/22 02:30:21;;;;;;;39.25;21.13;;;;;;;;;;5015797;28;20488;-66
2024/01/22 02:32:46;;;;;;;37.55;19.63;;;;;;;;;;5016777;28;20030;-66
2024/01/22 02:35:12;;;;;;;32.83;18.95;;;;;;;;;;5016705;28;20056;-67
2024/01/22 02:37:37;;;;;;;32.30;17.67;;;;;;;;;;4999116;28;20029;-69
2024/01/22 02:40:03;;;;;;;37.78;19.20;;;;;;;;;;5016087;28;20389;-69
2024/01/22 02:42:28;;;;;;;33.72;19.10;;;;;;;;;;4998674;28;20033;-67
2024/01/22 02:44:54;;;;;;;33.72;18.67;;;;;;;;;;4998684;28;20032;-67
2024/01/22 02:47:19;;;;;;;41.15;19.88;;;;;;;;;;5016061;28;20453;-68
2024/01/22 02:49:45;;;;;;;45.35;21.33;;;;;;;;;;5016230;28;20022;-66
2024/01/22 02:52:10;;;;;;;105.97;31.23;;;;;;;;;;5015890;28;20041;-67
2024/01/22 02:54:36;;;;;;;97.03;31.95;;;;;;;;;;5015816;28;20076;-69
2024/01/22 02:57:01;;;;;;;88.00;29.45;;;;;;;;;;5016312;28;20022;-69
2024/01/22 02:59:27;;;;;;;173.15;44.80;;;;;;;;;;5016316;28;20026;-69
2024/01/22 03:01:54;;;;;;;139.68;38.75;;;;;;;;;;5015652;28;20037;-69
2024/01/22 03:04:20;;;;;;;103.28;32.58;;;;;;;;;;5016125;28;20067;-69
2024/01/22 03:06:45;;;;;;;120.43;36.92;;;;;;;;;;4998116;28;20022;-69
2024/01/22 03:09:11;;;;;;;86.30;30.05;;;;;;;;;;5015726;28;20416;-69
2024/01/22 03:11:36;;;;;;;91.47;30.05;;;;;;;;;;5038150;23;20115;-67
2024/01/22 03:14:03;;;;;;;79.43;28.98;;;;;;;;;;5034887;23;20062;-69
2024/01/22 03:16:30;;;;;;;70.35;25.58;;;;;;;;;;5041549;23;20065;-69
2024/01/22 03:18:55;;;;;;;71.32;26.83;;;;;;;;;;5036019;23;20505;-68
2024/01/22 03:21:48;;;;;;;62.03;26.15;;;;;;;;;;5052331;23;20065;-62
2024/01/22 03:24:14;;;;;;;55.90;23.52;;;;;;;;;;4955659;29;20151;-70
2024/01/22 03:26:39;;;;;;;55.92;23.27;;;;;;;;;;4955715;29;20106;-69
2024/01/22 03:29:04;;;;;;;48.70;22.67;;;;;;;;;;4956837;29;20117;-69
2024/01/22 03:31:32;;;;;;;47.45;21.95;;;;;;;;;;4957106;28;20027;-70
2024/01/22 03:33:58;;;;;;;45.47;21.02;;;;;;;;;;4957338;28;20031;-69
2024/01/22 03:36:23;;;;;;;45.42;20.10;;;;;;;;;;4957022;28;20047;-69
2024/01/22 03:38:50;;;;;;;38.42;19.40;;;;;;;;;;4956973;28;20046;-68
2024/01/22 03:41:16;;;;;;;41.75;19.02;;;;;;;;;;4956080;28;20110;-69
2024/01/22 03:43:42;;;;;;;38.70;18.33;;;;;;;;;;4956434;29;20543;-69
2024/01/22 03:46:08;;;;;;;48.13;20.08;;;;;;;;;;4956455;28;20102;-68
2024/01/22 03:48:33;;;;;;;72.93;24.90;;;;;;;;;;4955646;29;20491;-68
2024/01/22 03:50:59;;;;;;;147.25;39.53;;;;;;;;;;4956448;28;20488;-67
2024/01/22 03:53:24;;;;;;;139.02;37.95;;;;;;;;;;4955133;29;20023;-67
2024/01/22 03:55:49;;;;;;;106.45;31.27;;;;;;;;;;4956634;28;20031;-67
2024/01/22 03:58:15;;;;;;;95.90;27.85;;;;;;;;;;4956266;29;20035;-67
2024/01/22 04:00:41;;;;;;;147.38;38.97;;;;;;;;;;4956292;28;20062;-67
2024/01/22 04:03:08;;;;;;;193.25;50.63;;;;;;;;;;4956485;28;20035;-67
2024/01/22 04:05:33;;;;;;;67.72;24.73;;;;;;;;;;4956119;28;20031;-67
2024/01/22 04:07:58;;;;;;;60.85;23.92;;;;;;;;;;4956126;29;20058;-67
2024/01/22 04:10:24;;;;;;;40.80;17.58;;;;;;;;;;4956361;28;20027;-67
2024/01/22 04:12:50;;;;;;;40.72;18.35;;;;;;;;;;4956128;28;20031;-68
2024/01/22 04:15:15;;;;;;;42.55;17.80;;;;;;;;;;4956008;28;20051;-67
2024/01/22 04:17:41;;;;;;;54.83;21.20;;;;;;;;;;4955975;28;20035;-67
2024/01/22 04:20:07;;;;;;;60.10;23.83;;;;;;;;;;4956216;28;20030;-67
2024/01/22 04:22:32;;;;;;;46.88;20.63;;;;;;;;;;4961966;28;20495;-67
2024/01/22 04:24:58;;;;;;;69.63;26.67;;;;;;;;;;4975057;28;20117;-67
2024/01/22 04:27:23;;;;;;;73.97;27.38;;;;;;;;;;4975688;28;20038;-67
2024/01/22 04:29:49;;;;;;;84.55;29.65;;;;;;;;;;4975347;28;20018;-67
2024/01/22 04:32:14;;;;;;;95.63;32.10;;;;;;;;;;4975040;28;20038;-67
2024/01/22 04:34:40;;;;;;;82.35;28.83;;;;;;;;;;4975305;28;20130;-67
2024/01/22 04:37:06;;;;;;;66.40;28.70;;;;;;;;;;4975241;28;20027;-67
2024/01/22 04:39:31;;;;;;;60.03;28.50;;;;;;;;;;4975235;28;20031;-67
2024/01/22 04:41:57;;;;;;;58.13;28.67;;;;;;;;;;4975193;28;20031;-67
2024/01/22 04:44:22;;;;;;;69.97;30.90;;;;;;;;;;4975078;28;20035;-68
2024/01/22 04:46:48;;;;;;;49.65;25.08;;;;;;;;;;4974912;28;20109;-67
2024/01/22 04:49:13;;;;;;;54.33;25.77;;;;;;;;;;4974964;28;20027;-67
2024/01/22 04:51:44;;;;;;;58.92;30.42;;;;;;;;;;4974816;28;20069;-67
2024/01/22 04:54:10;;;;;;;47.78;24.63;;;;;;;;;;4973634;28;20027;-67
2024/01/22 04:56:40;;;;;;;44.40;23.80;;;;;;;;;;4974725;28;20467;-67
2024/01/22 04:59:05;;;;;;;45.30;22.88;;;;;;;;;;4975328;28;20027;-66
2024/01/22 05:01:32;;;;;;;41.85;21.85;;;;;;;;;;4975259;28;20031;-66
2024/01/22 05:03:57;;;;;;;42.08;22.10;;;;;;;;;;4972921;28;20527;-67
2024/01/22 05:06:23;;;;;;;43.50;21.10;;;;;;;;;;4955329;28;20117;-67
2024/01/22 05:08:48;;;;;;;44.65;20.95;;;;;;;;;;4956429;28;20376;-68
2024/01/22 05:11:13;;;;;;;48.10;26.67;;;;;;;;;;4973871;28;20526;-69
2024/01/22 05:13:48;;;;;;;55.45;31.08;;;;;;;;;;4973956;28;20099;-68
2024/01/22 05:16:14;;;;;;;53.65;28.67;;;;;;;;;;4973912;28;20072;-68
2024/01/22 05:18:40;;;;;;;81.72;44.70;;;;;;;;;;4974387;28;20422;-68
2024/01/22 05:21:05;;;;;;;105.22;59.55;;;;;;;;;;4974835;28;20031;-67
2024/01/22 05:23:30;;;;;;;83.82;47.58;;;;;;;;;;4974704;28;20043;-67
2024/01/22 05:25:56;;;;;;;60.97;34.38;;;;;;;;;;4957042;28;20026;-69
2024/01/22 05:28:21;;;;;;;54.30;29.90;;;;;;;;;;4974502;28;20479;-69
2024/01/22 05:30:47;;;;;;;66.18;36.10;;;;;;;;;;4975009;28;20027;-69
2024/01/22 05:33:12;;;;;;;66.50;34.63;;;;;;;;;;4974196;28;20035;-70
2024/01/22 05:35:38;;;;;;;71.63;39.95;;;;;;;;;;4974401;28;20034;-68
2024/01/22 05:38:03;;;;;;;58.08;32.78;;;;;;;;;;4958148;28;20050;-68
2024/01/22 05:40:29;;;;;;;59.55;31.63;;;;;;;;;;4974901;28;20095;-68
2024/01/22 05:42:54;;;;;;;31.10;17.67;;;;;;;;;;4974647;28;20125;-68
2024/01/22 05:45:19;;;;;;;31.40;17.65;;;;;;;;;;4974848;28;20077;-69
2024/01/22 05:47:45;;;;;;;36.47;20.63;;;;;;;;;;4974614;28;20023;-70
2024/01/22 05:50:10;;;;;;;43.78;23.50;;;;;;;;;;4974574;28;20448;-69
2024/01/22 05:52:36;;;;;;;38.92;22.65;;;;;;;;;;4956924;28;20034;-70
2024/01/22 05:55:01;;;;;;;48.72;26.70;;;;;;;;;;4974251;28;20034;-70
2024/01/22 05:57:26;;;;;;;45.33;26.48;;;;;;;;;;4974784;28;20043;-70
2024/01/22 05:59:52;;;;;;;48.10;27.63;;;;;;;;;;4974500;28;20037;-71
2024/01/22 06:02:17;;;;;;;41.15;22.83;;;;;;;;;;4956837;28;20459;-69
2024/01/22 06:04:43;;;;;;;41.17;23.42;;;;;;;;;;4975400;28;20031;-68
2024/01/22 06:07:08;;;;;;;35.65;20.75;;;;;;;;;;4960658;28;20023;-69
2024/01/22 06:09:33;;;;;;;35.22;19.02;;;;;;;;;;4960297;28;20031;-68
2024/01/22 06:11:59;;;;;;;36.55;18.55;;;;;;;;;;4978103;28;20399;-69
2024/01/22 06:14:24;;;;;;;32.67;19.33;;;;;;;;;;4977769;28;20034;-69
2024/01/22 06:16:49;;;;;;;39.13;21.77;;;;;;;;;;4977460;28;20041;-69
2024/01/22 06:19:15;;;;;;;31.77;18.23;;;;;;;;;;4977979;28;20070;-69
2024/01/22 06:21:40;;;;;;;42.35;23.15;;;;;;;;;;4977418;28;20038;-69
2024/01/22 06:24:05;;;;;;;48.17;26.45;;;;;;;;;;4977100;28;20047;-69
2024/01/22 06:26:32;;;;;;;59.28;32.65;;;;;;;;;;4977879;28;20027;-69
2024/01/22 06:28:58;;;;;;;45.95;24.50;;;;;;;;;;4977528;28;20062;-68
2024/01/22 06:31:23;;;;;;;29.80;17.63;;;;;;;;;;4960027;28;20058;-68
2024/01/22 06:33:49;;;;;;;27.65;14.65;;;;;;;;;;4977756;28;20034;-68
2024/01/22 06:36:15;;;;;;;33.65;17.73;;;;;;;;;;4977677;28;20057;-69
2024/01/22 06:38:42;;;;;;;31.77;18.45;;;;;;;;;;4977132;28;20390;-69
2024/01/22 06:41:15;;;;;;;34.17;17.40;;;;;;;;;;4960472;28;20414;-70
2024/01/22 06:43:40;;;;;;;31.48;15.32;;;;;;;;;;4959687;28;20030;-70
2024/01/22 06:46:07;;;;;;;32.17;17.95;;;;;;;;;;4976897;28;20489;-70
2024/01/22 06:48:33;;;;;;;40.10;22.90;;;;;;;;;;4976912;28;20386;-69
2024/01/22 06:50:58;;;;;;;45.03;24.55;;;;;;;;;;4958557;28;20042;-70
2024/01/22 06:53:24;;;;;;;46.45;27.08;;;;;;;;;;4958755;28;20035;-70
2024/01/22 06:55:49;;;;;;;31.65;17.80;;;;;;;;;;4975960;28;20066;-70
2024/01/22 06:58:16;;;;;;;26.90;17.58;;;;;;;;;;4958541;28;20042;-70
2024/01/22 07:00:51;;;;;;;33.83;17.27;;;;;;;;;;4975720;28;20066;-70
2024/01/22 07:03:17;;;;;;;27.25;15.18;;;;;;;;;;4975984;28;20062;-70
2024/01/22 07:05:42;;;;;;;23.73;14.27;;;;;;;;;;4975960;28;20078;-70
2024/01/22 07:08:07;;;;;;;23.42;13.10;;;;;;;;;;4975557;28;20034;-70
2024/01/22 07:10:34;;;;;;;40.38;18.63;;;;;;;;;;4958061;28;20241;-70
2024/01/22 07:12:59;;;;;;;29.63;15.00;;;;;;;;;;4975260;28;20038;-70
2024/01/22 07:15:25;;;;;;;40.55;18.33;;;;;;;;;;4974807;28;20041;-70
2024/01/22 07:17:50;;;;;;;37.30;19.38;;;;;;;;;;4975016;28;20039;-70
2024/01/22 07:20:17;;;;;;;28.02;14.50;;;;;;;;;;4976575;28;20122;-70
2024/01/22 07:22:42;;;;;;;27.88;14.80;;;;;;;;;;4976530;28;20043;-70
2024/01/22 07:25:09;;;;;;;42.05;18.10;;;;;;;;;;4959473;28;20046;-70
2024/01/22 07:27:38;;;;;;;45.92;18.83;;;;;;;;;;4976211;28;20399;-70
2024/01/22 07:30:09;;;;;;;49.30;19.23;;;;;;;;;;4976437;28;20050;-70
2024/01/22 07:32:36;;;;;;;45.72;18.75;;;;;;;;;;4976412;28;20030;-70
2024/01/22 07:35:08;;;;;;;29.63;13.50;;;;;;;;;;4976363;28;20113;-70
2024/01/22 07:37:35;;;;;;;42.45;18.77;;;;;;;;;;4975981;28;20031;-70
2024/01/22 07:40:00;;;;;;;30.98;17.08;;;;;;;;;;4976221;28;20468;-70
2024/01/22 07:42:26;;;;;;;33.20;15.95;;;;;;;;;;4975897;28;20038;-69
2024/01/22 07:44:51;;;;;;;43.72;22.00;;;;;;;;;;4959276;28;20093;-69
2024/01/22 07:47:16;;;;;;;35.92;17.67;;;;;;;;;;4958865;28;20062;-69
2024/01/22 07:49:41;;;;;;;38.13;17.80;;;;;;;;;;4975786;28;20379;-69
2024/01/22 07:52:07;;;;;;;42.05;20.35;;;;;;;;;;4975718;28;20364;-69
2024/01/22 07:54:32;;;;;;;45.08;21.48;;;;;;;;;;4975963;28;20385;-69
2024/01/22 07:56:58;;;;;;;45.40;22.95;;;;;;;;;;4975609;28;20035;-69
2024/01/22 07:59:23;;;;;;;48.35;24.38;;;;;;;;;;4958443;28;20177;-69
2024/01/22 08:01:48;;;;;;;52.28;23.58;;;;;;;;;;4975850;28;20062;-69
2024/01/22 08:04:14;;;;;;;52.50;24.08;;;;;;;;;;4975395;28;20470;-69
2024/01/22 08:06:39;;;;;;;50.97;23.58;;;;;;;;;;4975493;28;20404;-69
2024/01/22 08:09:05;;;;;;;46.13;22.38;;;;;;;;;;4975716;28;20025;-69
2024/01/22 08:11:30;;;;;;;45.40;22.90;;;;;;;;;;4975393;28;20022;-69
2024/01/22 08:13:55;;;;;;;41.03;23.17;;;;;;;;;;4958043;28;20383;-69
2024/01/22 08:16:21;;;;;;;35.00;18.85;;;;;;;;;;4975329;28;20414;-69
2024/01/22 08:18:47;;;;;;;32.15;17.88;;;;;;;;;;4975228;28;20030;-70
2024/01/22 08:21:12;;;;;;;35.20;17.88;;;;;;;;;;4975236;28;20033;-69
2024/01/22 08:23:38;;;;;;;29.95;16.73;;;;;;;;;;4957724;28;20050;-70
2024/01/22 08:26:03;;;;;;;24.35;13.50;;;;;;;;;;4975164;28;20105;-70
2024/01/22 08:28:28;;;;;;;24.75;13.13;;;;;;;;;;4957416;28;20023;-70
2024/01/22 08:30:55;;;;;;;21.52;12.20;;;;;;;;;;4975131;28;20077;-70
2024/01/22 08:33:21;;;;;;;20.27;12.02;;;;;;;;;;4957779;28;20379;-70
2024/01/22 08:35:46;;;;;;;22.13;12.93;;;;;;;;;;4975330;28;20031;-70
2024/01/22 08:38:11;;;;;;;20.63;12.57;;;;;;;;;;4975292;28;20027;-70
2024/01/22 08:40:37;;;;;;;24.15;12.85;;;;;;;;;;4975002;28;20494;-70
2024/01/22 08:43:03;;;;;;;22.90;13.77;;;;;;;;;;4975213;28;20038;-70
2024/01/22 08:45:29;;;;;;;23.58;12.77;;;;;;;;;;4975157;28;20057;-70
2024/01/22 08:47:54;;;;;;;21.90;12.75;;;;;;;;;;4957949;28;20105;-70
2024/01/22 08:50:21;;;;;;;24.27;12.60;;;;;;;;;;4974878;28;20467;-70
2024/01/22 08:52:47;;;;;;;21.75;13.00;;;;;;;;;;4975405;28;20035;-70
2024/01/22 08:55:14;;;;;;;23.92;14.27;;;;;;;;;;4975098;28;20492;-70
2024/01/22 08:57:40;;;;;;;24.17;15.00;;;;;;;;;;4957849;28;20066;-70
2024/01/22 09:00:10;;;;;;;26.00;14.57;;;;;;;;;;4975056;28;20081;-70
2024/01/22 09:02:41;;;;;;;25.08;13.65;;;;;;;;;;4975031;28;20035;-70
2024/01/22 09:05:10;;;;;;;22.83;11.98;;;;;;;;;;4974911;28;20026;-70
2024/01/22 09:07:36;;;;;;;23.38;12.70;;;;;;;;;;4974966;28;20055;-70
2024/01/22 09:10:06;;;;;;;23.38;12.43;;;;;;;;;;4974689;28;20027;-70
2024/01/22 09:12:36;;;;;;;23.35;12.75;;;;;;;;;;4974926;28;20114;-70
2024/01/22 09:15:02;;;;;;;23.88;12.68;;;;;;;;;;4957663;28;20061;-69
2024/01/22 09:17:28;;;;;;;20.27;11.73;;;;;;;;;;4975130;28;20422;-70
2024/01/22 09:19:54;;;;;;;20.90;12.73;;;;;;;;;;4974585;28;20101;-70
2024/01/22 09:22:21;;;;;;;20.13;10.73;;;;;;;;;;4974650;28;20398;-70
2024/01/22 09:24:46;;;;;;;18.73;10.85;;;;;;;;;;4974730;28;20074;-70
2024/01/22 09:27:11;;;;;;;19.15;9.60;;;;;;;;;;4974515;28;20062;-70
2024/01/22 09:29:37;;;;;;;16.55;8.90;;;;;;;;;;4957675;28;20041;-70
2024/01/22 09:32:02;;;;;;;26.67;12.00;;;;;;;;;;4957168;28;20022;-70
2024/01/22 09:34:28;;;;;;;19.33;10.18;;;;;;;;;;4974726;28;20030;-70
2024/01/22 09:36:54;;;;;;;19.75;10.18;;;;;;;;;;4974447;28;20031;-70
2024/01/22 09:39:19;;;;;;;17.88;9.68;;;;;;;;;;4975180;28;20026;-70
2024/01/22 09:41:45;;;;;;;15.90;8.23;;;;;;;;;;4978156;28;20027;-70
2024/01/22 09:44:11;;;;;;;14.80;8.40;;;;;;;;;;4978105;28;20034;-70
2024/01/22 09:46:36;;;;;;;17.38;10.30;;;;;;;;;;4978220;28;20039;-70
2024/01/22 09:49:02;;;;;;;15.05;8.35;;;;;;;;;;4960652;28;20030;-70
2024/01/22 09:51:28;;;;;;;14.77;8.48;;;;;;;;;;4961045;28;20027;-70
2024/01/22 09:54:00;;;;;;;14.75;7.82;;;;;;;;;;4960599;28;20081;-70
2024/01/22 09:56:27;;;;;;;12.98;8.07;;;;;;;;;;4961209;28;20394;-70
2024/01/22 09:58:55;;;;;;;15.82;7.93;;;;;;;;;;4978135;28;20130;-70
2024/01/22 10:01:21;;;;;;;16.08;8.52;;;;;;;;;;4960506;28;20038;-70
2024/01/22 10:03:47;;;;;;;16.77;8.60;;;;;;;;;;4978319;28;20035;-70
2024/01/22 10:06:13;;;;;;;19.42;9.38;;;;;;;;;;4977896;28;20089;-70
2024/01/22 10:08:38;;;;;;;19.20;8.50;;;;;;;;;;4977927;28;20031;-70
2024/01/22 10:11:04;;;;;;;19.52;9.07;;;;;;;;;;4977627;28;20034;-70
2024/01/22 10:13:29;;;;;;;16.08;8.35;;;;;;;;;;4977584;28;20033;-70
2024/01/22 10:16:08;;;;;;;15.38;8.32;;;;;;;;;;4977852;28;20490;-70
2024/01/22 10:18:35;;;;;;;13.82;7.93;;;;;;;;;;4977817;28;20423;-70
2024/01/22 10:21:01;;;;;;;16.90;9.15;;;;;;;;;;4977489;28;20034;-70
2024/01/22 10:23:26;;;;;;;16.25;8.88;;;;;;;;;;4977192;28;20384;-70
2024/01/22 10:26:04;;;;;;;16.92;9.45;;;;;;;;;;4960091;28;20034;-70
2024/01/22 10:28:30;;;;;;;15.38;8.55;;;;;;;;;;4977574;28;20031;-69
2024/01/22 10:31:02;;;;;;;15.43;7.95;;;;;;;;;;4977820;28;20042;-70
2024/01/22 10:33:28;;;;;;;17.65;8.90;;;;;;;;;;4977500;28;20168;-70
2024/01/22 10:35:53;;;;;;;17.17;8.68;;;;;;;;;;4977456;28;20523;-70
2024/01/22 10:38:19;;;;;;;14.45;8.27;;;;;;;;;;4959813;28;20039;-70
2024/01/22 10:40:45;;;;;;;16.10;8.25;;;;;;;;;;4977381;28;20109;-70
2024/01/22 10:43:27;;;;;;;10.50;6.65;;;;;;;;;;4977356;28;20049;-70
2024/01/22 10:45:54;;;;;;;13.10;7.63;;;;;;;;;;4977246;28;20038;-70
2024/01/22 10:48:23;;;;;;;9.98;5.57;;;;;;;;;;4976985;28;20033;-70
2024/01/22 10:50:49;;;;;;;10.82;5.40;;;;;;;;;;4976547;28;20046;-70
2024/01/22 10:53:15;;;;;;;13.88;7.47;;;;;;;;;;4977145;28;20031;-70
2024/01/22 10:56:03;;;;;;;13.15;6.82;;;;;;;;;;4976843;28;20030;-70
2024/01/22 10:58:44;;;;;;;11.18;5.97;;;;;;;;;;4976172;28;20073;-70
2024/01/22 11:01:13;;;;;;;8.50;5.63;;;;;;;;;;4977052;28;20035;-70
2024/01/22 11:03:50;;;;;;;9.32;5.50;;;;;;;;;;4976962;28;20034;-70
2024/01/22 11:06:19;;;;;;;11.45;6.05;;;;;;;;;;4976875;28;20039;-70
2024/01/22 11:08:49;;;;;;;11.23;5.60;;;;;;;;;;4959329;28;20031;-70
2024/01/22 11:11:15;;;;;;;25.17;8.80;;;;;;;;;;4976847;28;20053;-70
2024/01/22 11:16:24;;;;;;;8.48;5.00;;;;;;;;;;5031812;23;20141;-69
2024/01/22 11:19:04;;;;;;;7.63;4.70;;;;;;;;;;5051812;23;20160;-61
2024/01/22 11:21:39;;;;;;;10.15;5.32;;;;;;;;;;5036223;23;20100;-70
2024/01/22 11:24:24;;;;;;;12.52;6.18;;;;;;;;;;5032096;23;20058;-61
2024/01/22 11:26:52;;;;;;;14.70;7.55;;;;;;;;;;4993965;28;20538;-70
2024/01/22 11:29:27;;;;;;;10.70;5.35;;;;;;;;;;4978284;28;20065;-70
2024/01/22 11:31:53;;;;;;;10.70;6.18;;;;;;;;;;4978214;28;20094;-70
2024/01/22 11:34:37;;;;;;;11.52;5.95;;;;;;;;;;4993669;28;20492;-70
2024/01/22 11:37:03;;;;;;;6.85;4.43;;;;;;;;;;4995768;28;20059;-69
2024/01/22 11:39:42;;;;;;;11.43;5.15;;;;;;;;;;4995748;28;20108;-69
2024/01/22 11:42:16;;;;;;;10.35;5.78;;;;;;;;;;4995997;28;20026;-69
2024/01/22 11:44:48;;;;;;;11.85;5.72;;;;;;;;;;4995551;28;20172;-69
2024/01/22 11:47:13;;;;;;;8.40;4.93;;;;;;;;;;4995577;28;20039;-69
2024/01/22 11:49:39;;;;;;;7.60;4.90;;;;;;;;;;4995568;28;20029;-69
2024/01/22 11:52:11;;;;;;;10.02;5.78;;;;;;;;;;4995484;28;20027;-70
2024/01/22 11:54:36;;;;;;;8.73;5.28;;;;;;;;;;4995441;28;20034;-69
2024/01/22 11:57:02;;;;;;;8.75;5.18;;;;;;;;;;4995620;28;20041;-69
2024/01/22 11:59:29;;;;;;;8.50;4.75;;;;;;;;;;4995107;28;20022;-69
2024/01/22 12:02:09;;;;;;;9.65;5.45;;;;;;;;;;4994730;28;20072;-69
2024/01/22 12:04:34;;;;;;;8.40;4.47;;;;;;;;;;4995203;28;20030;-69
2024/01/22 12:07:00;;;;;;;7.50;4.53;;;;;;;;;;4977463;28;20266;-70
2024/01/22 12:09:25;;;;;;;9.40;5.25;;;;;;;;;;4977890;28;20068;-70
2024/01/22 12:11:51;;;;;;;7.45;4.93;;;;;;;;;;4977817;28;20122;-70
2024/01/22 12:14:16;;;;;;;8.18;4.95;;;;;;;;;;4994817;28;20073;-70
2024/01/22 12:16:42;;;;;;;7.35;4.55;;;;;;;;;;4994768;28;20038;-70
2024/01/22 12:19:11;;;;;;;9.40;5.22;;;;;;;;;;4995013;28;20034;-70
2024/01/22 12:21:37;;;;;;;8.30;5.25;;;;;;;;;;4994757;28;20041;-70
2024/01/22 12:24:10;;;;;;;5.45;4.05;;;;;;;;;;4994953;28;20105;-70
2024/01/22 12:26:40;;;;;;;7.72;5.25;;;;;;;;;;4994347;28;20047;-70
2024/01/22 12:29:05;;;;;;;6.15;3.97;;;;;;;;;;4994879;28;20033;-70
2024/01/22 12:31:31;;;;;;;6.60;3.20;;;;;;;;;;4994830;28;20109;-69
2024/01/22 12:34:10;;;;;;;4.70;3.17;;;;;;;;;;4994818;28;20034;-70
2024/01/22 12:36:36;;;;;;;6.35;3.92;;;;;;;;;;4977394;28;20034;-70
2024/01/22 12:39:03;;;;;;;7.28;4.40;;;;;;;;;;4994427;28;20027;-70
2024/01/22 12:41:31;;;;;;;4.97;3.65;;;;;;;;;;4977077;28;20088;-70
2024/01/22 12:43:59;;;;;;;5.25;3.58;;;;;;;;;;4994382;28;20030;-69
2024/01/22 12:46:25;;;;;;;4.15;3.03;;;;;;;;;;4994279;28;20030;-69
2024/01/22 12:48:53;;;;;;;5.32;3.72;;;;;;;;;;4994552;28;20034;-69
2024/01/22 12:51:24;;;;;;;5.10;4.03;;;;;;;;;;4994270;28;20076;-69
2024/01/22 12:53:51;;;;;;;5.35;3.00;;;;;;;;;;4960757;28;20038;-69
2024/01/22 12:56:17;;;;;;;3.33;2.80;;;;;;;;;;4994486;28;20030;-69
2024/01/22 12:58:42;;;;;;;11.40;7.50;;;;;;;;;;4994439;28;20036;-69
2024/01/22 13:01:11;;;;;;;4.80;3.03;;;;;;;;;;4994466;28;20479;-69
2024/01/22 13:03:37;;;;;;;5.35;3.63;;;;;;;;;;4994448;28;20390;-69
2024/01/22 13:06:03;;;;;;;3.30;3.00;;;;;;;;;;4994065;28;20034;-69
2024/01/22 13:08:29;;;;;;;3.63;2.80;;;;;;;;;;4994126;28;20031;-69
2024/01/22 13:10:57;;;;;;;2.40;1.65;;;;;;;;;;4994363;28;20446;-69
2024/01/22 13:13:25;;;;;;;4.55;2.80;;;;;;;;;;4994888;28;20022;-69
2024/01/22 13:15:53;;;;;;;4.53;3.78;;;;;;;;;;4998136;28;20097;-68
2024/01/22 13:18:18;;;;;;;3.30;3.00;;;;;;;;;;4980987;28;20030;-69
2024/01/22 13:20:47;;;;;;;4.38;3.03;;;;;;;;;;4980604;28;20030;-69
2024/01/22 13:23:17;;;;;;;4.40;3.50;;;;;;;;;;4998112;28;20041;-69
2024/01/22 13:25:42;;;;;;;3.88;2.53;;;;;;;;;;4997851;28;20093;-69
2024/01/22 13:28:07;;;;;;;3.60;2.35;;;;;;;;;;4980449;28;20062;-69
2024/01/22 13:30:34;;;;;;;2.80;2.13;;;;;;;;;;4997808;28;20022;-69
2024/01/22 13:33:01;;;;;;;1.63;1.48;;;;;;;;;;4997797;28;20034;-69
2024/01/22 13:35:26;;;;;;;4.38;2.83;;;;;;;;;;4998031;28;20109;-69
2024/01/22 13:37:52;;;;;;;3.85;2.65;;;;;;;;;;4980722;28;20145;-69
2024/01/22 13:40:17;;;;;;;3.65;2.80;;;;;;;;;;4980395;28;20513;-69
2024/01/22 13:42:43;;;;;;;4.88;3.00;;;;;;;;;;4997549;28;20036;-69
2024/01/22 13:45:09;;;;;;;3.33;2.22;;;;;;;;;;4997943;28;20038;-69
2024/01/22 13:47:34;;;;;;;1.45;1.23;;;;;;;;;;4998080;28;20061;-69
2024/01/22 13:50:01;;;;;;;3.35;2.20;;;;;;;;;;4998068;28;20109;-69
2024/01/22 13:52:27;;;;;;;3.20;2.40;;;;;;;;;;4997755;28;20033;-67
2024/01/22 13:54:52;;;;;;;3.38;2.80;;;;;;;;;;4997708;28;20038;-67
2024/01/22 13:57:18;;;;;;;5.68;3.53;;;;;;;;;;4997643;28;20097;-67
2024/01/22 13:59:44;;;;;;;3.10;2.45;;;;;;;;;;4997631;28;20030;-69
2024/01/22 14:02:10;;;;;;;4.88;2.85;;;;;;;;;;4997294;28;20367;-67
2024/01/22 14:04:37;;;;;;;4.18;3.03;;;;;;;;;;4997482;28;20040;-67
2024/01/22 14:07:02;;;;;;;5.03;2.88;;;;;;;;;;4997453;28;20474;-67
2024/01/22 14:09:30;;;;;;;5.82;2.45;;;;;;;;;;4997457;28;20026;-67
2024/01/22 14:11:55;;;;;;;5.78;3.00;;;;;;;;;;4997410;28;20040;-68
2024/01/22 14:14:21;;;;;;;5.68;3.20;;;;;;;;;;4997357;28;20030;-67
2024/01/22 14:16:46;;;;;;;3.10;2.40;;;;;;;;;;4979530;28;20034;-67
2024/01/22 14:19:12;;;;;;;4.40;3.10;;;;;;;;;;4997216;28;20031;-67
2024/01/22 14:21:37;;;;;;;3.65;2.58;;;;;;;;;;4997224;28;20062;-67
2024/01/22 14:24:03;;;;;;;2.60;1.65;;;;;;;;;;4997146;28;20061;-68